Rock Point, MD (20682)

1:06 PM EDT on July 04, 2015 (GMT -0400)
Notley Hall Farm | | Change Station
CLOSE
Current Station
Personal Weather Station
Location: Chaptico, MD
Elevation: 20 ft
Nearby Weather Stations

Elev 20 ft 38.31 °N, 76.82 °W | Updated 1 second ago

Overcast
Overcast
79.7 °F
Feels Like 84 °F
N
1.0
Wind Variable Wind from WNW
Gusts 1.0 mph

Today
High -- | Low -- °F
--% Chance of Precip.
Yesterday
High -- | Low -- °F
Precip. -- in
5:49 AM 8:34 PM
Waning Gibbous, 91% visible
Pressure 29.92 in
Visibility 10.0 miles
Clouds Scattered Clouds 2300 ft
Mostly Cloudy 4100 ft
Overcast 9500 ft
Heat Index 84 °F
Dew Point 73 °F
Humidity 80%
Rainfall 0.00 in
Snow Depth Not available.
UV 4 out of 12
Pollen .60 out of 12
Air Quality Not available.
Flu Activity Not available.
METAR K2W6 041645Z AUTO 00000KT 10SM SCT023 BKN041 OVC095 26/20 A2992 RMK AO1

More Conditions Fewer Conditions

Pressure 29.92 in
Visibility 10.0 miles
Clouds Scattered Clouds 2300 ft
Mostly Cloudy 4100 ft
Overcast 9500 ft
Heat Index 84 °F
Dew Point 73 °F
Humidity 80%
Rainfall 0.00 in
Snow Depth Not available.
UV 4 out of 12
Pollen .60 out of 12
Air Quality Not available.
Flu Activity Not available.
METAR K2W6 041645Z AUTO 00000KT 10SM SCT023 BKN041 OVC095 26/20 A2992 RMK AO1

More Conditions Fewer Conditions

10-Day Weather Forecast

×

Almanac

Astronomy

Jul. 04, 2015 Rise Set
Actual Time
Civil Twilight
Nautical Twilight
Astronomical Twilight
Moon
Length of Visible Light
Length of Day
Tomorrow will be .
, % of the Moon is Illuminated

Today's Extremes

State Highs State Lows

Community

WunderPhotos

Upload Photos

1,835,003 photos uploaded!

WunderBlogs® & News

Nearby

Air Quality

  Air Quality AQ Index Pollutant
Not available.

Snow Depth

Station Depth Elevation

Earthquake Activity

City Distance Mag. Time & Date
Minimum magnitude displayed is 2.5.

Coastal Water Temperatures

Place Temperature

Stations

Nearby Weather Stations

Station Location Temp. Windchill Dew Point Humidity Wind Precip. Elev Updated Type